sensor_id;sensor_type;location;lat;lon;timestamp;P1;durP1;ratioP1;P2;durP2;ratioP2
8060;SDS011;4073;42.626;25.386;2023-04-16T00:01:19;8.80;;;5.33;;
8060;SDS011;4073;42.626;25.386;2023-04-16T00:03:45;9.80;;;6.30;;
8060;SDS011;4073;42.626;25.386;2023-04-16T00:06:10;8.10;;;4.50;;
8060;SDS011;4073;42.626;25.386;2023-04-16T00:08:36;8.83;;;3.67;;
8060;SDS011;4073;42.626;25.386;2023-04-16T00:11:02;5.70;;;3.57;;
8060;SDS011;4073;42.626;25.386;2023-04-16T00:13:27;9.07;;;4.20;;
8060;SDS011;4073;42.626;25.386;2023-04-16T00:15:53;9.00;;;3.53;;
8060;SDS011;4073;42.626;25.386;2023-04-16T00:18:18;5.33;;;3.53;;
8060;SDS011;4073;42.626;25.386;2023-04-16T00:20:45;14.30;;;7.67;;
8060;SDS011;4073;42.626;25.386;2023-04-16T00:23:11;8.77;;;6.30;;
8060;SDS011;4073;42.626;25.386;2023-04-16T00:25:37;8.77;;;5.27;;
8060;SDS011;4073;42.626;25.386;2023-04-16T00:28:03;13.43;;;8.03;;
8060;SDS011;4073;42.626;25.386;2023-04-16T00:30:29;7.57;;;5.53;;
8060;SDS011;4073;42.626;25.386;2023-04-16T00:32:54;6.07;;;4.67;;
8060;SDS011;4073;42.626;25.386;2023-04-16T00:35:20;4.83;;;4.07;;
8060;SDS011;4073;42.626;25.386;2023-04-16T00:37:45;22.17;;;16.30;;
8060;SDS011;4073;42.626;25.386;2023-04-16T00:40:11;11.50;;;6.80;;
8060;SDS011;4073;42.626;25.386;2023-04-16T00:42:36;7.23;;;4.33;;
8060;SDS011;4073;42.626;25.386;2023-04-16T00:45:02;7.13;;;4.30;;
8060;SDS011;4073;42.626;25.386;2023-04-16T00:47:29;6.73;;;4.43;;
8060;SDS011;4073;42.626;25.386;2023-04-16T00:49:55;5.50;;;4.93;;
8060;SDS011;4073;42.626;25.386;2023-04-16T00:52:20;6.10;;;4.27;;
8060;SDS011;4073;42.626;25.386;2023-04-16T00:54:46;6.50;;;4.17;;
8060;SDS011;4073;42.626;25.386;2023-04-16T00:57:12;6.63;;;4.50;;
8060;SDS011;4073;42.626;25.386;2023-04-16T00:59:39;7.47;;;4.80;;
8060;SDS011;4073;42.626;25.386;2023-04-16T01:02:05;11.37;;;6.73;;
8060;SDS011;4073;42.626;25.386;2023-04-16T01:04:31;8.70;;;4.90;;
8060;SDS011;4073;42.626;25.386;2023-04-16T01:06:57;6.97;;;4.37;;
8060;SDS011;4073;42.626;25.386;2023-04-16T01:09:23;4.30;;;2.93;;
8060;SDS011;4073;42.626;25.386;2023-04-16T01:11:49;4.03;;;2.87;;
8060;SDS011;4073;42.626;25.386;2023-04-16T01:14:14;5.63;;;3.53;;
8060;SDS011;4073;42.626;25.386;2023-04-16T01:16:40;5.30;;;3.83;;
8060;SDS011;4073;42.626;25.386;2023-04-16T01:19:05;9.50;;;5.17;;
8060;SDS011;4073;42.626;25.386;2023-04-16T01:21:31;8.60;;;4.80;;
8060;SDS011;4073;42.626;25.386;2023-04-16T01:23:56;7.77;;;4.77;;
8060;SDS011;4073;42.626;25.386;2023-04-16T01:26:22;8.23;;;4.70;;
8060;SDS011;4073;42.626;25.386;2023-04-16T01:28:47;5.80;;;3.93;;
8060;SDS011;4073;42.626;25.386;2023-04-16T01:31:12;7.17;;;3.60;;
8060;SDS011;4073;42.626;25.386;2023-04-16T01:33:38;6.07;;;3.70;;
8060;SDS011;4073;42.626;25.386;2023-04-16T01:36:03;4.93;;;3.93;;
8060;SDS011;4073;42.626;25.386;2023-04-16T01:38:41;8.03;;;4.20;;
8060;SDS011;4073;42.626;25.386;2023-04-16T01:41:06;4.63;;;3.43;;
8060;SDS011;4073;42.626;25.386;2023-04-16T01:43:32;5.57;;;3.10;;
8060;SDS011;4073;42.626;25.386;2023-04-16T01:46:19;6.67;;;3.50;;
8060;SDS011;4073;42.626;25.386;2023-04-16T01:48:45;3.27;;;2.97;;
8060;SDS011;4073;42.626;25.386;2023-04-16T01:51:11;5.40;;;3.33;;
8060;SDS011;4073;42.626;25.386;2023-04-16T01:53:36;6.90;;;3.67;;
8060;SDS011;4073;42.626;25.386;2023-04-16T01:56:02;4.67;;;3.10;;
8060;SDS011;4073;42.626;25.386;2023-04-16T01:58:28;13.80;;;6.33;;
8060;SDS011;4073;42.626;25.386;2023-04-16T02:00:55;6.30;;;3.97;;
8060;SDS011;4073;42.626;25.386;2023-04-16T02:03:20;6.57;;;3.13;;
8060;SDS011;4073;42.626;25.386;2023-04-16T02:05:48;6.70;;;3.43;;
8060;SDS011;4073;42.626;25.386;2023-04-16T02:08:15;3.97;;;3.20;;
8060;SDS011;4073;42.626;25.386;2023-04-16T02:10:40;7.00;;;3.20;;
8060;SDS011;4073;42.626;25.386;2023-04-16T02:13:06;4.47;;;3.37;;
8060;SDS011;4073;42.626;25.386;2023-04-16T02:15:31;5.10;;;2.97;;
8060;SDS011;4073;42.626;25.386;2023-04-16T02:17:57;4.73;;;3.40;;
8060;SDS011;4073;42.626;25.386;2023-04-16T02:20:22;8.43;;;3.50;;
8060;SDS011;4073;42.626;25.386;2023-04-16T02:22:48;6.27;;;3.87;;
8060;SDS011;4073;42.626;25.386;2023-04-16T02:25:13;7.17;;;3.83;;
8060;SDS011;4073;42.626;25.386;2023-04-16T02:27:39;7.00;;;3.47;;
8060;SDS011;4073;42.626;25.386;2023-04-16T02:30:05;4.53;;;2.83;;
8060;SDS011;4073;42.626;25.386;2023-04-16T02:32:31;4.43;;;3.17;;
8060;SDS011;4073;42.626;25.386;2023-04-16T02:34:56;5.53;;;3.07;;
8060;SDS011;4073;42.626;25.386;2023-04-16T02:37:22;7.50;;;4.50;;
8060;SDS011;4073;42.626;25.386;2023-04-16T02:39:48;3.93;;;3.50;;
8060;SDS011;4073;42.626;25.386;2023-04-16T02:42:14;7.03;;;3.60;;
8060;SDS011;4073;42.626;25.386;2023-04-16T02:44:40;4.63;;;4.10;;
8060;SDS011;4073;42.626;25.386;2023-04-16T02:47:06;5.90;;;3.53;;
8060;SDS011;4073;42.626;25.386;2023-04-16T02:49:31;4.57;;;3.33;;
8060;SDS011;4073;42.626;25.386;2023-04-16T02:51:57;6.93;;;4.20;;
8060;SDS011;4073;42.626;25.386;2023-04-16T02:54:22;4.90;;;3.87;;
8060;SDS011;4073;42.626;25.386;2023-04-16T02:56:47;7.97;;;4.00;;
8060;SDS011;4073;42.626;25.386;2023-04-16T02:59:13;9.07;;;3.83;;
8060;SDS011;4073;42.626;25.386;2023-04-16T03:01:38;6.27;;;4.07;;
8060;SDS011;4073;42.626;25.386;2023-04-16T03:04:04;7.87;;;3.30;;
8060;SDS011;4073;42.626;25.386;2023-04-16T03:06:29;7.67;;;3.20;;
8060;SDS011;4073;42.626;25.386;2023-04-16T03:08:55;5.20;;;3.47;;
8060;SDS011;4073;42.626;25.386;2023-04-16T03:11:21;6.20;;;3.67;;
8060;SDS011;4073;42.626;25.386;2023-04-16T03:13:47;7.00;;;3.60;;
8060;SDS011;4073;42.626;25.386;2023-04-16T03:16:13;4.87;;;3.87;;
8060;SDS011;4073;42.626;25.386;2023-04-16T03:18:38;7.77;;;4.40;;
8060;SDS011;4073;42.626;25.386;2023-04-16T03:21:04;6.43;;;4.63;;
8060;SDS011;4073;42.626;25.386;2023-04-16T03:23:29;7.90;;;4.87;;
8060;SDS011;4073;42.626;25.386;2023-04-16T03:25:55;8.47;;;4.73;;
8060;SDS011;4073;42.626;25.386;2023-04-16T03:28:20;8.30;;;4.27;;
8060;SDS011;4073;42.626;25.386;2023-04-16T03:30:49;6.33;;;4.50;;
8060;SDS011;4073;42.626;25.386;2023-04-16T03:33:16;8.53;;;4.33;;
8060;SDS011;4073;42.626;25.386;2023-04-16T03:35:42;8.10;;;4.87;;
8060;SDS011;4073;42.626;25.386;2023-04-16T03:38:07;6.93;;;4.17;;
8060;SDS011;4073;42.626;25.386;2023-04-16T03:40:33;6.93;;;4.20;;
8060;SDS011;4073;42.626;25.386;2023-04-16T03:42:58;5.37;;;3.83;;
8060;SDS011;4073;42.626;25.386;2023-04-16T03:45:24;5.63;;;3.60;;
8060;SDS011;4073;42.626;25.386;2023-04-16T03:47:49;5.57;;;3.37;;
8060;SDS011;4073;42.626;25.386;2023-04-16T03:50:17;8.33;;;3.83;;
8060;SDS011;4073;42.626;25.386;2023-04-16T03:52:43;7.80;;;5.03;;
8060;SDS011;4073;42.626;25.386;2023-04-16T03:55:10;5.67;;;3.23;;
8060;SDS011;4073;42.626;25.386;2023-04-16T03:57:36;3.53;;;2.53;;
8060;SDS011;4073;42.626;25.386;2023-04-16T04:00:02;5.37;;;3.70;;
8060;SDS011;4073;42.626;25.386;2023-04-16T04:02:28;6.17;;;3.93;;
8060;SDS011;4073;42.626;25.386;2023-04-16T04:04:53;6.80;;;5.80;;
8060;SDS011;4073;42.626;25.386;2023-04-16T04:07:19;6.77;;;3.87;;
8060;SDS011;4073;42.626;25.386;2023-04-16T04:09:44;5.53;;;3.90;;
8060;SDS011;4073;42.626;25.386;2023-04-16T04:12:10;7.87;;;3.77;;
8060;SDS011;4073;42.626;25.386;2023-04-16T04:14:35;7.37;;;4.13;;
8060;SDS011;4073;42.626;25.386;2023-04-16T04:17:04;6.57;;;4.27;;
8060;SDS011;4073;42.626;25.386;2023-04-16T04:19:30;6.30;;;3.73;;
8060;SDS011;4073;42.626;25.386;2023-04-16T04:21:55;6.33;;;3.60;;
8060;SDS011;4073;42.626;25.386;2023-04-16T04:24:21;5.47;;;4.07;;
8060;SDS011;4073;42.626;25.386;2023-04-16T04:26:46;4.17;;;3.83;;
8060;SDS011;4073;42.626;25.386;2023-04-16T04:29:12;5.13;;;3.63;;
8060;SDS011;4073;42.626;25.386;2023-04-16T04:31:38;5.37;;;3.30;;
8060;SDS011;4073;42.626;25.386;2023-04-16T04:34:03;5.03;;;3.53;;
8060;SDS011;4073;42.626;25.386;2023-04-16T04:36:29;7.07;;;4.80;;
8060;SDS011;4073;42.626;25.386;2023-04-16T04:38:55;7.63;;;5.20;;
8060;SDS011;4073;42.626;25.386;2023-04-16T04:41:20;7.27;;;4.57;;
8060;SDS011;4073;42.626;25.386;2023-04-16T04:43:46;7.63;;;4.50;;
8060;SDS011;4073;42.626;25.386;2023-04-16T04:46:11;6.30;;;4.47;;
8060;SDS011;4073;42.626;25.386;2023-04-16T04:48:36;13.33;;;6.53;;
8060;SDS011;4073;42.626;25.386;2023-04-16T04:51:02;7.37;;;5.03;;
8060;SDS011;4073;42.626;25.386;2023-04-16T04:53:28;8.70;;;5.57;;
8060;SDS011;4073;42.626;25.386;2023-04-16T04:55:54;5.03;;;4.23;;
8060;SDS011;4073;42.626;25.386;2023-04-16T04:58:19;6.00;;;3.97;;
8060;SDS011;4073;42.626;25.386;2023-04-16T05:00:45;10.20;;;5.33;;
8060;SDS011;4073;42.626;25.386;2023-04-16T05:03:10;10.87;;;4.97;;
8060;SDS011;4073;42.626;25.386;2023-04-16T05:05:37;6.50;;;4.57;;
8060;SDS011;4073;42.626;25.386;2023-04-16T05:08:05;7.40;;;4.17;;
8060;SDS011;4073;42.626;25.386;2023-04-16T05:10:31;5.20;;;3.67;;
8060;SDS011;4073;42.626;25.386;2023-04-16T05:12:56;5.63;;;3.57;;
8060;SDS011;4073;42.626;25.386;2023-04-16T05:15:22;7.73;;;4.43;;
8060;SDS011;4073;42.626;25.386;2023-04-16T05:17:47;6.60;;;4.83;;
8060;SDS011;4073;42.626;25.386;2023-04-16T05:20:13;6.53;;;4.87;;
8060;SDS011;4073;42.626;25.386;2023-04-16T05:22:38;10.20;;;4.73;;
8060;SDS011;4073;42.626;25.386;2023-04-16T05:25:04;8.50;;;4.93;;
8060;SDS011;4073;42.626;25.386;2023-04-16T05:27:30;7.53;;;4.80;;
8060;SDS011;4073;42.626;25.386;2023-04-16T05:29:55;7.97;;;4.80;;
8060;SDS011;4073;42.626;25.386;2023-04-16T05:32:21;7.97;;;4.27;;
8060;SDS011;4073;42.626;25.386;2023-04-16T05:34:48;7.40;;;5.50;;
8060;SDS011;4073;42.626;25.386;2023-04-16T05:37:14;6.73;;;5.13;;
8060;SDS011;4073;42.626;25.386;2023-04-16T05:39:39;8.57;;;4.83;;
8060;SDS011;4073;42.626;25.386;2023-04-16T05:42:05;10.50;;;5.97;;
8060;SDS011;4073;42.626;25.386;2023-04-16T05:44:30;10.93;;;7.20;;
8060;SDS011;4073;42.626;25.386;2023-04-16T05:46:55;11.40;;;8.10;;
8060;SDS011;4073;42.626;25.386;2023-04-16T05:49:21;12.60;;;7.97;;
8060;SDS011;4073;42.626;25.386;2023-04-16T05:51:47;12.63;;;8.17;;
8060;SDS011;4073;42.626;25.386;2023-04-16T05:54:12;15.10;;;9.73;;
8060;SDS011;4073;42.626;25.386;2023-04-16T05:56:38;12.77;;;8.90;;
8060;SDS011;4073;42.626;25.386;2023-04-16T05:59:04;15.27;;;9.43;;
8060;SDS011;4073;42.626;25.386;2023-04-16T06:01:29;14.23;;;9.63;;
8060;SDS011;4073;42.626;25.386;2023-04-16T06:03:56;9.03;;;7.47;;
8060;SDS011;4073;42.626;25.386;2023-04-16T06:06:21;12.03;;;8.97;;
8060;SDS011;4073;42.626;25.386;2023-04-16T06:08:47;12.57;;;9.47;;
8060;SDS011;4073;42.626;25.386;2023-04-16T06:11:12;15.40;;;10.07;;
8060;SDS011;4073;42.626;25.386;2023-04-16T06:13:38;12.23;;;8.73;;
8060;SDS011;4073;42.626;25.386;2023-04-16T06:16:03;16.73;;;9.10;;
8060;SDS011;4073;42.626;25.386;2023-04-16T06:18:29;13.40;;;9.50;;
8060;SDS011;4073;42.626;25.386;2023-04-16T06:20:54;14.23;;;9.67;;
8060;SDS011;4073;42.626;25.386;2023-04-16T06:23:20;17.73;;;10.53;;
8060;SDS011;4073;42.626;25.386;2023-04-16T06:25:45;17.00;;;9.47;;
8060;SDS011;4073;42.626;25.386;2023-04-16T06:28:11;20.60;;;13.30;;
8060;SDS011;4073;42.626;25.386;2023-04-16T06:30:36;16.07;;;11.43;;
8060;SDS011;4073;42.626;25.386;2023-04-16T06:33:03;16.83;;;10.47;;
8060;SDS011;4073;42.626;25.386;2023-04-16T06:35:29;18.50;;;9.77;;
8060;SDS011;4073;42.626;25.386;2023-04-16T06:37:54;21.03;;;14.07;;
8060;SDS011;4073;42.626;25.386;2023-04-16T06:40:20;21.00;;;11.80;;
8060;SDS011;4073;42.626;25.386;2023-04-16T06:42:45;17.53;;;11.57;;
8060;SDS011;4073;42.626;25.386;2023-04-16T06:45:11;16.90;;;11.17;;
8060;SDS011;4073;42.626;25.386;2023-04-16T06:47:37;19.50;;;11.33;;
8060;SDS011;4073;42.626;25.386;2023-04-16T06:50:02;19.17;;;11.80;;
8060;SDS011;4073;42.626;25.386;2023-04-16T06:52:28;18.07;;;11.90;;
8060;SDS011;4073;42.626;25.386;2023-04-16T06:54:53;13.57;;;10.10;;
8060;SDS011;4073;42.626;25.386;2023-04-16T06:57:19;12.27;;;10.77;;
8060;SDS011;4073;42.626;25.386;2023-04-16T06:59:44;15.30;;;11.43;;
8060;SDS011;4073;42.626;25.386;2023-04-16T07:02:10;17.40;;;11.10;;
8060;SDS011;4073;42.626;25.386;2023-04-16T07:04:35;16.43;;;10.63;;
8060;SDS011;4073;42.626;25.386;2023-04-16T07:07:01;12.87;;;10.37;;
8060;SDS011;4073;42.626;25.386;2023-04-16T07:09:26;16.67;;;9.13;;
8060;SDS011;4073;42.626;25.386;2023-04-16T07:11:52;16.70;;;10.20;;
8060;SDS011;4073;42.626;25.386;2023-04-16T07:14:18;18.87;;;14.13;;
8060;SDS011;4073;42.626;25.386;2023-04-16T07:16:43;15.70;;;9.60;;
8060;SDS011;4073;42.626;25.386;2023-04-16T07:19:09;14.43;;;9.53;;
8060;SDS011;4073;42.626;25.386;2023-04-16T07:21:35;13.63;;;9.20;;
8060;SDS011;4073;42.626;25.386;2023-04-16T07:24:01;13.87;;;9.50;;
8060;SDS011;4073;42.626;25.386;2023-04-16T07:26:26;14.43;;;9.10;;
8060;SDS011;4073;42.626;25.386;2023-04-16T07:28:52;18.90;;;10.60;;
8060;SDS011;4073;42.626;25.386;2023-04-16T07:31:17;13.90;;;10.83;;
8060;SDS011;4073;42.626;25.386;2023-04-16T07:33:43;18.97;;;13.33;;
8060;SDS011;4073;42.626;25.386;2023-04-16T07:36:08;16.23;;;11.83;;
8060;SDS011;4073;42.626;25.386;2023-04-16T07:38:34;18.47;;;12.57;;
8060;SDS011;4073;42.626;25.386;2023-04-16T07:41:00;16.10;;;12.13;;
8060;SDS011;4073;42.626;25.386;2023-04-16T07:43:25;17.63;;;12.20;;
8060;SDS011;4073;42.626;25.386;2023-04-16T07:45:51;16.53;;;13.67;;
8060;SDS011;4073;42.626;25.386;2023-04-16T07:48:16;19.67;;;13.17;;
8060;SDS011;4073;42.626;25.386;2023-04-16T07:50:42;21.33;;;14.23;;
8060;SDS011;4073;42.626;25.386;2023-04-16T07:53:07;20.97;;;13.47;;
8060;SDS011;4073;42.626;25.386;2023-04-16T07:55:33;19.60;;;12.83;;
8060;SDS011;4073;42.626;25.386;2023-04-16T07:57:59;19.30;;;13.23;;
8060;SDS011;4073;42.626;25.386;2023-04-16T08:00:24;16.20;;;11.83;;
8060;SDS011;4073;42.626;25.386;2023-04-16T08:02:50;16.87;;;12.70;;
8060;SDS011;4073;42.626;25.386;2023-04-16T08:05:16;16.37;;;12.87;;
8060;SDS011;4073;42.626;25.386;2023-04-16T08:07:41;23.23;;;14.70;;
8060;SDS011;4073;42.626;25.386;2023-04-16T08:10:07;16.17;;;13.60;;
8060;SDS011;4073;42.626;25.386;2023-04-16T08:12:34;17.90;;;13.53;;
8060;SDS011;4073;42.626;25.386;2023-04-16T08:15:00;18.53;;;12.93;;
8060;SDS011;4073;42.626;25.386;2023-04-16T08:17:25;17.17;;;12.90;;
8060;SDS011;4073;42.626;25.386;2023-04-16T08:19:52;17.33;;;12.80;;
8060;SDS011;4073;42.626;25.386;2023-04-16T08:22:18;22.50;;;12.63;;
8060;SDS011;4073;42.626;25.386;2023-04-16T08:24:43;17.70;;;13.47;;
8060;SDS011;4073;42.626;25.386;2023-04-16T08:27:10;21.27;;;14.33;;
8060;SDS011;4073;42.626;25.386;2023-04-16T08:29:36;18.23;;;13.50;;
8060;SDS011;4073;42.626;25.386;2023-04-16T08:32:01;17.03;;;12.83;;
8060;SDS011;4073;42.626;25.386;2023-04-16T08:34:27;14.60;;;13.10;;
8060;SDS011;4073;42.626;25.386;2023-04-16T08:36:52;15.77;;;13.57;;
8060;SDS011;4073;42.626;25.386;2023-04-16T08:39:18;20.33;;;15.20;;
8060;SDS011;4073;42.626;25.386;2023-04-16T08:41:45;18.40;;;12.60;;
8060;SDS011;4073;42.626;25.386;2023-04-16T08:44:22;20.20;;;14.23;;
8060;SDS011;4073;42.626;25.386;2023-04-16T08:46:50;21.43;;;14.20;;
8060;SDS011;4073;42.626;25.386;2023-04-16T08:49:22;21.20;;;14.30;;
8060;SDS011;4073;42.626;25.386;2023-04-16T08:51:52;21.23;;;14.90;;
8060;SDS011;4073;42.626;25.386;2023-04-16T08:54:33;17.07;;;12.70;;
8060;SDS011;4073;42.626;25.386;2023-04-16T08:57:10;19.10;;;12.77;;
8060;SDS011;4073;42.626;25.386;2023-04-16T08:59:39;22.17;;;13.60;;
8060;SDS011;4073;42.626;25.386;2023-04-16T09:02:06;18.03;;;14.20;;
8060;SDS011;4073;42.626;25.386;2023-04-16T09:04:31;25.77;;;16.53;;
8060;SDS011;4073;42.626;25.386;2023-04-16T09:06:58;16.17;;;11.33;;
8060;SDS011;4073;42.626;25.386;2023-04-16T09:09:26;16.67;;;11.50;;
8060;SDS011;4073;42.626;25.386;2023-04-16T09:11:53;16.03;;;11.40;;
8060;SDS011;4073;42.626;25.386;2023-04-16T09:14:18;19.13;;;10.23;;
8060;SDS011;4073;42.626;25.386;2023-04-16T09:16:45;15.37;;;9.93;;
8060;SDS011;4073;42.626;25.386;2023-04-16T09:19:14;15.87;;;10.97;;
8060;SDS011;4073;42.626;25.386;2023-04-16T09:21:40;13.47;;;10.10;;
8060;SDS011;4073;42.626;25.386;2023-04-16T09:24:07;13.90;;;9.87;;
8060;SDS011;4073;42.626;25.386;2023-04-16T09:26:34;14.10;;;9.97;;
8060;SDS011;4073;42.626;25.386;2023-04-16T09:29:00;14.20;;;9.63;;
8060;SDS011;4073;42.626;25.386;2023-04-16T09:31:26;20.70;;;10.03;;
8060;SDS011;4073;42.626;25.386;2023-04-16T09:34:02;13.93;;;9.30;;
8060;SDS011;4073;42.626;25.386;2023-04-16T09:36:32;11.17;;;10.13;;
8060;SDS011;4073;42.626;25.386;2023-04-16T09:38:58;14.73;;;8.33;;
8060;SDS011;4073;42.626;25.386;2023-04-16T09:41:26;15.57;;;10.03;;
8060;SDS011;4073;42.626;25.386;2023-04-16T09:43:57;17.20;;;9.27;;
8060;SDS011;4073;42.626;25.386;2023-04-16T09:46:33;14.13;;;9.17;;
8060;SDS011;4073;42.626;25.386;2023-04-16T09:49:04;13.37;;;8.60;;
8060;SDS011;4073;42.626;25.386;2023-04-16T09:51:36;17.53;;;10.97;;
8060;SDS011;4073;42.626;25.386;2023-04-16T09:54:03;14.13;;;9.27;;
8060;SDS011;4073;42.626;25.386;2023-04-16T09:56:29;14.90;;;9.13;;
8060;SDS011;4073;42.626;25.386;2023-04-16T09:58:55;13.17;;;8.87;;
8060;SDS011;4073;42.626;25.386;2023-04-16T10:01:23;13.23;;;8.40;;
8060;SDS011;4073;42.626;25.386;2023-04-16T10:03:49;15.10;;;8.20;;
8060;SDS011;4073;42.626;25.386;2023-04-16T10:06:18;12.30;;;8.43;;
8060;SDS011;4073;42.626;25.386;2023-04-16T10:08:48;19.00;;;9.07;;
8060;SDS011;4073;42.626;25.386;2023-04-16T10:11:14;11.73;;;7.57;;
8060;SDS011;4073;42.626;25.386;2023-04-16T10:13:41;13.50;;;7.97;;
8060;SDS011;4073;42.626;25.386;2023-04-16T10:16:06;11.83;;;7.53;;
8060;SDS011;4073;42.626;25.386;2023-04-16T10:18:37;14.57;;;7.73;;
8060;SDS011;4073;42.626;25.386;2023-04-16T10:21:07;19.73;;;8.37;;
8060;SDS011;4073;42.626;25.386;2023-04-16T10:23:35;11.30;;;7.77;;
8060;SDS011;4073;42.626;25.386;2023-04-16T10:26:02;11.93;;;7.97;;
8060;SDS011;4073;42.626;25.386;2023-04-16T10:28:29;18.13;;;8.43;;
8060;SDS011;4073;42.626;25.386;2023-04-16T10:30:56;11.00;;;7.73;;
8060;SDS011;4073;42.626;25.386;2023-04-16T10:33:32;10.13;;;8.13;;
8060;SDS011;4073;42.626;25.386;2023-04-16T10:36:12;13.43;;;8.23;;
8060;SDS011;4073;42.626;25.386;2023-04-16T10:41:15;8.90;;;6.23;;
8060;SDS011;4073;42.626;25.386;2023-04-16T10:43:47;13.67;;;6.67;;
8060;SDS011;4073;42.626;25.386;2023-04-16T10:48:52;9.00;;;5.40;;
8060;SDS011;4073;42.626;25.386;2023-04-16T10:51:37;9.73;;;5.40;;
8060;SDS011;4073;42.626;25.386;2023-04-16T10:56:35;10.90;;;6.17;;
8060;SDS011;4073;42.626;25.386;2023-04-16T10:59:04;12.53;;;6.93;;
8060;SDS011;4073;42.626;25.386;2023-04-16T11:01:31;11.53;;;6.17;;
8060;SDS011;4073;42.626;25.386;2023-04-16T11:04:00;9.50;;;5.43;;
8060;SDS011;4073;42.626;25.386;2023-04-16T11:12:13;9.50;;;4.30;;
8060;SDS011;4073;42.626;25.386;2023-04-16T11:14:40;11.70;;;5.10;;
8060;SDS011;4073;42.626;25.386;2023-04-16T11:17:06;10.10;;;4.47;;
8060;SDS011;4073;42.626;25.386;2023-04-16T11:19:34;8.40;;;4.27;;
8060;SDS011;4073;42.626;25.386;2023-04-16T11:22:00;9.37;;;3.43;;
8060;SDS011;4073;42.626;25.386;2023-04-16T11:24:32;6.70;;;4.33;;
8060;SDS011;4073;42.626;25.386;2023-04-16T11:26:57;5.37;;;3.80;;
8060;SDS011;4073;42.626;25.386;2023-04-16T11:29:23;8.67;;;4.83;;
8060;SDS011;4073;42.626;25.386;2023-04-16T11:31:52;6.80;;;4.43;;
8060;SDS011;4073;42.626;25.386;2023-04-16T11:34:18;7.70;;;4.03;;
8060;SDS011;4073;42.626;25.386;2023-04-16T11:36:47;10.27;;;4.63;;
8060;SDS011;4073;42.626;25.386;2023-04-16T11:39:15;7.43;;;4.97;;
8060;SDS011;4073;42.626;25.386;2023-04-16T11:41:45;8.93;;;5.03;;
8060;SDS011;4073;42.626;25.386;2023-04-16T11:44:30;8.87;;;4.80;;
8060;SDS011;4073;42.626;25.386;2023-04-16T11:46:55;8.40;;;6.10;;
8060;SDS011;4073;42.626;25.386;2023-04-16T11:49:30;9.77;;;6.00;;
8060;SDS011;4073;42.626;25.386;2023-04-16T11:51:56;12.37;;;5.63;;
8060;SDS011;4073;42.626;25.386;2023-04-16T11:54:23;9.00;;;5.20;;
8060;SDS011;4073;42.626;25.386;2023-04-16T11:56:49;8.13;;;5.27;;
8060;SDS011;4073;42.626;25.386;2023-04-16T11:59:17;9.80;;;4.67;;
8060;SDS011;4073;42.626;25.386;2023-04-16T12:01:50;10.53;;;5.53;;
8060;SDS011;4073;42.626;25.386;2023-04-16T12:04:21;6.17;;;4.23;;
8060;SDS011;4073;42.626;25.386;2023-04-16T12:09:34;11.37;;;4.73;;
8060;SDS011;4073;42.626;25.386;2023-04-16T12:12:01;9.20;;;4.77;;
8060;SDS011;4073;42.626;25.386;2023-04-16T12:14:27;7.23;;;5.13;;
8060;SDS011;4073;42.626;25.386;2023-04-16T12:16:53;13.73;;;5.03;;
8060;SDS011;4073;42.626;25.386;2023-04-16T12:19:19;9.27;;;5.20;;
8060;SDS011;4073;42.626;25.386;2023-04-16T12:21:49;8.63;;;5.10;;
8060;SDS011;4073;42.626;25.386;2023-04-16T12:24:15;12.00;;;5.87;;
8060;SDS011;4073;42.626;25.386;2023-04-16T12:26:51;12.20;;;5.93;;
8060;SDS011;4073;42.626;25.386;2023-04-16T12:29:24;13.17;;;5.27;;
8060;SDS011;4073;42.626;25.386;2023-04-16T12:31:51;9.67;;;6.03;;
8060;SDS011;4073;42.626;25.386;2023-04-16T12:34:18;10.17;;;5.40;;
8060;SDS011;4073;42.626;25.386;2023-04-16T12:36:45;7.53;;;5.50;;
8060;SDS011;4073;42.626;25.386;2023-04-16T12:39:12;10.00;;;4.67;;
8060;SDS011;4073;42.626;25.386;2023-04-16T12:41:39;11.47;;;5.40;;
8060;SDS011;4073;42.626;25.386;2023-04-16T12:44:09;9.03;;;5.33;;
8060;SDS011;4073;42.626;25.386;2023-04-16T12:46:39;11.60;;;6.60;;
8060;SDS011;4073;42.626;25.386;2023-04-16T12:49:06;13.20;;;6.37;;
8060;SDS011;4073;42.626;25.386;2023-04-16T12:51:32;8.83;;;6.00;;
8060;SDS011;4073;42.626;25.386;2023-04-16T12:53:58;9.47;;;5.00;;
8060;SDS011;4073;42.626;25.386;2023-04-16T12:56:25;13.10;;;5.97;;
8060;SDS011;4073;42.626;25.386;2023-04-16T12:58:51;9.40;;;5.73;;
8060;SDS011;4073;42.626;25.386;2023-04-16T13:01:17;10.27;;;5.97;;
8060;SDS011;4073;42.626;25.386;2023-04-16T13:03:43;9.83;;;5.73;;
8060;SDS011;4073;42.626;25.386;2023-04-16T13:06:09;9.03;;;5.10;;
8060;SDS011;4073;42.626;25.386;2023-04-16T13:08:35;11.87;;;5.13;;
8060;SDS011;4073;42.626;25.386;2023-04-16T13:11:01;6.97;;;4.60;;
8060;SDS011;4073;42.626;25.386;2023-04-16T13:13:27;7.63;;;5.17;;
8060;SDS011;4073;42.626;25.386;2023-04-16T13:15:53;13.27;;;6.40;;
8060;SDS011;4073;42.626;25.386;2023-04-16T13:18:18;8.63;;;5.47;;
8060;SDS011;4073;42.626;25.386;2023-04-16T13:20:44;7.20;;;5.83;;
8060;SDS011;4073;42.626;25.386;2023-04-16T13:23:09;11.43;;;6.10;;
8060;SDS011;4073;42.626;25.386;2023-04-16T13:25:35;8.57;;;6.23;;
8060;SDS011;4073;42.626;25.386;2023-04-16T13:28:01;8.43;;;5.97;;
8060;SDS011;4073;42.626;25.386;2023-04-16T13:30:26;22.67;;;7.30;;
8060;SDS011;4073;42.626;25.386;2023-04-16T13:32:53;7.77;;;5.73;;
8060;SDS011;4073;42.626;25.386;2023-04-16T13:35:20;8.53;;;6.07;;
8060;SDS011;4073;42.626;25.386;2023-04-16T13:37:45;11.10;;;6.13;;
8060;SDS011;4073;42.626;25.386;2023-04-16T13:40:11;10.23;;;6.17;;
8060;SDS011;4073;42.626;25.386;2023-04-16T13:42:36;10.37;;;6.07;;
8060;SDS011;4073;42.626;25.386;2023-04-16T13:45:02;8.37;;;6.30;;
8060;SDS011;4073;42.626;25.386;2023-04-16T13:47:27;7.53;;;6.73;;
8060;SDS011;4073;42.626;25.386;2023-04-16T13:49:53;7.00;;;6.23;;
8060;SDS011;4073;42.626;25.386;2023-04-16T13:52:18;7.70;;;6.47;;
8060;SDS011;4073;42.626;25.386;2023-04-16T13:54:44;6.90;;;5.80;;
8060;SDS011;4073;42.626;25.386;2023-04-16T13:57:10;7.60;;;5.73;;
8060;SDS011;4073;42.626;25.386;2023-04-16T13:59:36;9.20;;;5.83;;
8060;SDS011;4073;42.626;25.386;2023-04-16T14:02:02;9.10;;;5.70;;
8060;SDS011;4073;42.626;25.386;2023-04-16T14:04:29;9.10;;;5.63;;
8060;SDS011;4073;42.626;25.386;2023-04-16T14:06:55;6.23;;;5.17;;
8060;SDS011;4073;42.626;25.386;2023-04-16T14:09:20;10.13;;;5.73;;
8060;SDS011;4073;42.626;25.386;2023-04-16T14:11:46;8.80;;;5.80;;
8060;SDS011;4073;42.626;25.386;2023-04-16T14:14:11;8.37;;;4.83;;
8060;SDS011;4073;42.626;25.386;2023-04-16T14:16:37;5.37;;;4.87;;
8060;SDS011;4073;42.626;25.386;2023-04-16T14:19:02;9.27;;;4.93;;
8060;SDS011;4073;42.626;25.386;2023-04-16T14:21:28;8.70;;;5.10;;
8060;SDS011;4073;42.626;25.386;2023-04-16T14:23:55;5.93;;;4.60;;
8060;SDS011;4073;42.626;25.386;2023-04-16T14:26:20;8.23;;;5.70;;
8060;SDS011;4073;42.626;25.386;2023-04-16T14:28:46;12.80;;;6.03;;
8060;SDS011;4073;42.626;25.386;2023-04-16T14:31:12;6.47;;;5.20;;
8060;SDS011;4073;42.626;25.386;2023-04-16T14:33:37;8.37;;;5.27;;
8060;SDS011;4073;42.626;25.386;2023-04-16T14:36:03;7.63;;;5.47;;
8060;SDS011;4073;42.626;25.386;2023-04-16T14:38:29;8.17;;;5.63;;
8060;SDS011;4073;42.626;25.386;2023-04-16T14:40:55;8.33;;;6.03;;
8060;SDS011;4073;42.626;25.386;2023-04-16T14:43:20;8.43;;;5.23;;
8060;SDS011;4073;42.626;25.386;2023-04-16T14:45:46;5.73;;;5.23;;
8060;SDS011;4073;42.626;25.386;2023-04-16T14:48:11;8.67;;;5.63;;
8060;SDS011;4073;42.626;25.386;2023-04-16T14:50:37;8.87;;;5.33;;
8060;SDS011;4073;42.626;25.386;2023-04-16T14:53:07;5.47;;;4.27;;
8060;SDS011;4073;42.626;25.386;2023-04-16T14:55:33;6.47;;;5.60;;
8060;SDS011;4073;42.626;25.386;2023-04-16T14:57:58;6.87;;;4.47;;
8060;SDS011;4073;42.626;25.386;2023-04-16T15:00:24;8.93;;;5.70;;
8060;SDS011;4073;42.626;25.386;2023-04-16T15:02:49;7.13;;;4.90;;
8060;SDS011;4073;42.626;25.386;2023-04-16T15:05:15;8.57;;;5.53;;